Time;durP1;ratioP1;P1;durP2;ratioP2;P2;SDS_P1;SDS_P2;PMS_P1;PMS_P2;Temp;Humidity;BMP_temperature;BMP_pressure;BME280_temperature;BME280_humidity;BME280_pressure;Samples;Min_cycle;Max_cycle;Signal;HPM_P1;HPM_P2
2022/09/20 08:22:45;;;;;;;5.60;1.50;;;;;;;10.42;100.00;98753.72;18539;19;666794869;31
2022/09/20 08:28:09;;;;;;;5.95;1.20;;;;;;;10.52;100.00;98767.13;15347860;19;19915;-79
2022/09/20 08:33:14;;;;;;;5.22;1.13;;;;;;;10.60;100.00;98766.38;15356853;19;20018;-78
2022/09/20 08:38:25;;;;;;;3.47;1.13;;;;;;;10.64;100.00;98754.28;15350241;19;20081;-77
2022/09/20 08:43:54;;;;;;;4.57;1.20;;;;;;;10.61;100.00;98758.13;15346718;19;20011;-79
2022/09/20 08:49:00;;;;;;;5.07;1.15;;;;;;;10.65;100.00;98769.44;15360728;19;20007;-78
2022/09/20 08:54:15;;;;;;;4.68;1.20;;;;;;;10.72;100.00;98770.53;15065356;19;139838;-77
2022/09/20 08:59:24;;;;;;;3.90;1.20;;;;;;;10.75;100.00;98764.84;15356612;19;20019;-78
2022/09/20 09:04:36;;;;;;;4.45;1.23;;;;;;;10.70;100.00;98774.41;15344685;19;20022;-77
2022/09/20 09:09:47;;;;;;;5.35;1.20;;;;;;;10.77;100.00;98767.38;15347755;19;20118;-77
2022/09/20 09:14:57;;;;;;;3.47;1.02;;;;;;;10.91;100.00;98777.63;15320490;19;20014;-76
2022/09/20 09:20:17;;;;;;;4.70;1.10;;;;;;;10.98;100.00;98776.97;15128674;19;2669699;-79
2022/09/20 09:59:03;;;;;;;4.53;1.20;;;;;;;11.88;100.00;98774.06;7637110;18;148320978;-78
2022/09/20 10:09:42;;;;;;;4.20;1.20;;;;;;;11.51;100.00;98777.91;15212505;19;20283;-51
2022/09/20 10:15:20;;;;;;;3.90;1.00;;;;;;;11.28;100.00;98774.88;14908283;19;173756;-56
2022/09/20 10:20:59;;;;;;;3.80;1.00;;;;;;;11.53;100.00;98781.28;15344157;19;20011;-54
2022/09/20 10:26:52;;;;;;;2.30;0.80;;;;;;;12.05;100.00;98777.72;15345365;19;20014;-55
2022/09/20 10:32:34;;;;;;;4.72;1.10;;;;;;;12.14;100.00;98775.91;15272540;19;20073;-52
2022/09/20 10:38:14;;;;;;;2.73;0.83;;;;;;;12.13;100.00;98768.81;15339769;19;20010;-56
2022/09/20 10:44:02;;;;;;;2.92;0.80;;;;;;;12.02;100.00;98775.34;15350021;19;20017;-53
2022/09/20 10:49:34;;;;;;;2.65;0.88;;;;;;;12.17;100.00;98778.28;15339026;19;20033;-53
2022/09/20 10:55:14;;;;;;;3.72;0.90;;;;;;;12.12;100.00;98778.75;15335256;19;20010;-56
2022/09/20 11:00:54;;;;;;;1.90;0.60;;;;;;;12.32;100.00;98771.22;15362075;19;20007;-79
2022/09/20 11:06:26;;;;;;;2.17;0.90;;;;;;;12.46;100.00;98764.38;15400164;19;20063;-77
2022/09/20 11:11:57;;;;;;;2.03;0.70;;;;;;;12.42;100.00;98759.44;15350077;19;20014;-77
2022/09/20 11:17:31;;;;;;;5.13;0.90;;;;;;;12.68;100.00;98772.84;15352291;19;20014;-79
2022/09/20 11:23:03;;;;;;;2.53;0.68;;;;;;;13.01;100.00;98770.19;15303716;19;20423;-76
2022/09/20 11:28:33;;;;;;;4.05;0.80;;;;;;;13.01;100.00;98753.09;15294725;19;20019;-81
2022/09/20 11:34:10;;;;;;;1.83;0.70;;;;;;;13.07;100.00;98760.56;15303766;19;20369;-81
2022/09/20 11:39:42;;;;;;;1.63;0.70;;;;;;;13.12;100.00;98769.00;15296527;19;20010;-79
2022/09/20 11:45:08;;;;;;;1.87;0.60;;;;;;;13.32;100.00;98765.94;15291471;19;20034;-77
2022/09/20 11:51:02;;;;;;;1.88;0.57;;;;;;;13.43;100.00;98753.94;15298027;19;20279;-80
2022/09/20 11:56:31;;;;;;;1.85;0.60;;;;;;;13.63;100.00;98741.75;15292381;19;20038;-78
2022/09/20 12:01:58;;;;;;;3.80;0.80;;;;;;;13.87;100.00;98748.94;15297553;19;20047;-79
2022/09/20 12:07:28;;;;;;;2.10;0.70;;;;;;;13.43;100.00;98743.13;15296551;19;20037;-79
2022/09/20 12:12:55;;;;;;;2.05;0.70;;;;;;;13.75;100.00;98735.97;15306497;19;20030;-79
2022/09/20 12:18:39;;;;;;;2.05;0.70;;;;;;;13.85;100.00;98737.44;15306533;19;20018;-78
2022/09/20 12:24:22;;;;;;;2.28;0.70;;;;;;;14.03;100.00;98733.66;15297528;19;20031;-78
2022/09/20 12:30:10;;;;;;;3.17;0.60;;;;;;;14.43;100.00;98731.72;15284415;19;20015;-77
2022/09/20 12:36:13;;;;;;;1.70;0.55;;;;;;;14.59;100.00;98738.09;15285497;19;20014;-79
2022/09/20 12:41:54;;;;;;;1.65;0.60;;;;;;;14.39;100.00;98737.69;15299325;19;20022;-79
2022/09/20 12:47:22;;;;;;;2.33;0.70;;;;;;;14.30;100.00;98747.72;15289057;19;20058;-77
2022/09/20 12:52:59;;;;;;;1.77;0.60;;;;;;;13.67;100.00;98756.59;15284017;19;20018;-77
2022/09/20 12:58:43;;;;;;;0.70;0.40;;;;;;;13.15;100.00;98765.94;15278505;19;20014;-76
2022/09/20 13:05:00;;;;;;;1.50;0.50;;;;;;;12.73;100.00;98783.16;15275526;19;20483;-78
2022/09/20 13:10:29;;;;;;;0.63;0.40;;;;;;;11.83;100.00;98806.09;15278491;19;20010;-76
2022/09/20 13:16:04;;;;;;;1.35;0.50;;;;;;;11.19;100.00;98803.63;15285696;19;20014;-77
2022/09/20 13:21:29;;;;;;;1.92;0.50;;;;;;;11.01;100.00;98804.47;15279690;19;20021;-78
2022/09/20 13:26:57;;;;;;;1.33;0.40;;;;;;;11.01;100.00;98815.25;15272342;19;20018;-76
2022/09/20 13:32:26;;;;;;;0.57;0.30;;;;;;;10.99;100.00;98811.91;15274399;19;20022;-76
2022/09/20 13:37:59;;;;;;;0.47;0.30;;;;;;;11.16;100.00;98820.13;15280880;19;20080;-77
2022/09/20 13:43:29;;;;;;;1.55;0.30;;;;;;;11.20;100.00;98819.66;15272718;19;20468;-74
2022/09/20 13:49:02;;;;;;;0.27;0.27;;;;;;;11.26;100.00;98826.25;15286318;19;20014;-77
2022/09/20 13:54:29;;;;;;;0.32;0.17;;;;;;;11.34;100.00;98812.88;15329230;19;20307;-77
2022/09/20 13:59:54;;;;;;;0.17;0.10;;;;;;;11.60;100.00;98809.31;15281431;19;20018;-77
2022/09/20 14:05:28;;;;;;;0.70;0.30;;;;;;;11.80;100.00;98811.81;15267886;19;20591;-80
2022/09/20 14:10:52;;;;;;;0.30;0.10;;;;;;;12.14;100.00;98816.41;15282822;19;20011;-77
2022/09/20 14:16:19;;;;;;;0.43;0.20;;;;;;;12.28;100.00;98818.53;15271283;19;20007;-77
2022/09/20 14:21:46;;;;;;;0.20;0.20;;;;;;;12.70;100.00;98815.94;15293292;19;20042;-79
2022/09/20 14:27:22;;;;;;;0.90;0.20;;;;;;;13.02;100.00;98817.84;15269933;19;20019;-58
2022/09/20 14:32:53;;;;;;;0.60;0.35;;;;;;;13.66;100.00;98825.31;15272286;19;20023;-58
2022/09/20 14:38:25;;;;;;;0.20;0.20;;;;;;;13.52;100.00;98816.03;15264542;19;20007;-58
2022/09/20 14:43:50;;;;;;;0.70;0.30;;;;;;;13.10;100.00;98820.56;15265504;19;20029;-58
2022/09/20 14:49:22;;;;;;;0.13;0.13;;;;;;;12.86;100.00;98824.09;15270154;19;20015;-58
2022/09/20 14:54:50;;;;;;;0.22;0.22;;;;;;;12.78;100.00;98818.66;15270791;19;20018;-58
2022/09/20 15:11:40;;;;;;;0.43;0.20;;;;;;;14.03;100.00;98823.06;15300503;19;20476;-50
2022/09/20 15:17:05;;;;;;;1.40;0.30;;;;;;;14.41;100.00;98822.41;15283355;19;20026;-52
2022/09/20 15:22:30;;;;;;;0.82;0.20;;;;;;;14.48;100.00;98816.09;15278583;19;20026;-50
2022/09/20 15:27:58;;;;;;;0.40;0.30;;;;;;;14.46;100.00;98820.84;15277006;19;20034;-49
2022/09/20 15:33:23;;;;;;;0.10;0.10;;;;;;;13.99;100.00;98819.81;15274000;19;20090;-50
2022/09/20 15:38:48;;;;;;;0.30;0.25;;;;;;;13.77;100.00;98823.25;15198295;19;20015;-52
2022/09/20 15:44:15;;;;;;;0.60;0.30;;;;;;;14.06;100.00;98835.41;15276704;19;20338;-51
2022/09/20 15:49:40;;;;;;;0.30;0.30;;;;;;;14.37;100.00;98824.63;15278113;19;20025;-54
2022/09/20 15:55:05;;;;;;;0.10;0.10;;;;;;;14.49;100.00;98831.34;15270211;19;20018;-53
2022/09/20 16:06:18;;;;;;;0.47;0.30;;;;;;;14.24;100.00;98827.03;15283733;19;19987;-59
2022/09/20 16:46:29;;;;;;;0.30;0.30;;;;;;;13.26;100.00;98887.38;15280278;19;20010;-78
2022/09/20 16:51:54;;;;;;;0.40;0.30;;;;;;;13.03;100.00;98891.72;15295747;19;20353;-78
2022/09/20 16:57:22;;;;;;;0.40;0.40;;;;;;;12.98;100.00;98897.63;15291285;19;20506;-77
2022/09/20 17:02:50;;;;;;;0.50;0.40;;;;;;;12.92;100.00;98909.94;15286279;19;20347;-77
2022/09/20 17:08:14;;;;;;;0.68;0.68;;;;;;;12.81;100.00;98918.38;15284271;19;20596;-76
2022/09/20 17:13:40;;;;;;;1.08;0.55;;;;;;;12.60;100.00;98927.75;15284153;19;20242;-76
2022/09/20 17:19:08;;;;;;;0.93;0.90;;;;;;;12.38;100.00;98936.41;15271862;19;20015;-77
2022/09/20 17:24:33;;;;;;;1.27;0.90;;;;;;;12.24;100.00;98933.31;15241822;19;20046;-74
2022/09/20 17:29:58;;;;;;;0.77;0.70;;;;;;;12.01;100.00;98947.34;15277328;19;20015;-75
2022/09/20 17:35:28;;;;;;;0.60;0.60;;;;;;;11.70;100.00;98945.00;15271089;19;20010;-75
2022/09/20 17:40:52;;;;;;;1.70;0.68;;;;;;;11.60;100.00;98952.34;15274379;19;20006;-77
2022/09/20 17:46:25;;;;;;;0.82;0.40;;;;;;;11.38;100.00;98967.16;15273026;19;20015;-77
2022/09/20 17:51:55;;;;;;;0.60;0.60;;;;;;;11.30;100.00;98965.22;15246201;19;20444;-76
2022/09/20 17:57:19;;;;;;;0.50;0.47;;;;;;;11.21;100.00;98983.16;15247917;19;20506;-76
2022/09/20 18:02:43;;;;;;;0.75;0.75;;;;;;;11.12;100.00;98975.13;15274267;19;20046;-77
2022/09/20 18:08:11;;;;;;;0.70;0.63;;;;;;;10.97;100.00;98975.66;15270828;19;20006;-78
2022/09/20 18:13:37;;;;;;;1.05;1.00;;;;;;;10.68;100.00;98990.09;15271415;19;20479;-79
2022/09/20 18:19:04;;;;;;;1.48;0.70;;;;;;;10.53;100.00;98997.81;15273218;19;20513;-79
2022/09/20 18:24:32;;;;;;;1.65;0.90;;;;;;;10.33;100.00;98994.31;15267989;19;20014;-77
2022/09/20 18:29:56;;;;;;;1.23;0.70;;;;;;;10.23;100.00;99006.94;15278924;19;20019;-77
2022/09/20 18:35:21;;;;;;;0.90;0.60;;;;;;;10.07;100.00;99016.44;15284166;19;20026;-76
2022/09/20 18:40:48;;;;;;;3.55;1.00;;;;;;;9.87;100.00;99027.22;15284877;19;20504;-76
2022/09/20 18:46:13;;;;;;;0.70;0.60;;;;;;;9.77;100.00;99034.47;15275986;19;20047;-75
2022/09/20 18:51:37;;;;;;;1.13;0.70;;;;;;;9.70;100.00;99033.34;15289287;19;20010;-77
2022/09/20 18:57:04;;;;;;;0.57;0.50;;;;;;;9.57;100.00;99033.59;15287092;19;20007;-78
2022/09/20 19:02:59;;;;;;;0.80;0.60;;;;;;;9.48;100.00;99053.25;15283371;19;20018;-78
2022/09/20 19:08:33;;;;;;;0.70;0.70;;;;;;;9.37;100.00;99048.84;15284312;19;20021;-77
2022/09/20 19:14:05;;;;;;;0.70;0.68;;;;;;;9.32;100.00;99061.88;15296899;19;20014;-78
2022/09/20 19:19:38;;;;;;;0.60;0.60;;;;;;;9.20;100.00;99061.09;15293053;19;20039;-78
2022/09/20 19:25:31;;;;;;;0.75;0.70;;;;;;;9.14;100.00;99065.19;15354619;19;20018;-80
2022/09/20 19:31:22;;;;;;;1.38;0.80;;;;;;;9.03;100.00;99070.66;15324172;19;20037;-78
2022/09/20 19:36:57;;;;;;;0.75;0.70;;;;;;;8.96;100.00;99074.91;15295361;19;20019;-78
2022/09/20 19:42:28;;;;;;;0.77;0.73;;;;;;;8.89;100.00;99082.63;15290858;19;20014;-78
2022/09/20 19:48:03;;;;;;;1.00;0.90;;;;;;;8.78;100.00;99079.06;15281632;19;20010;-77
2022/09/20 19:53:28;;;;;;;2.72;1.20;;;;;;;8.69;100.00;99079.88;15283099;19;20018;-78
2022/09/20 19:58:55;;;;;;;1.35;1.25;;;;;;;8.61;100.00;99085.91;15324086;19;20007;-78
2022/09/20 20:04:23;;;;;;;1.20;1.10;;;;;;;8.50;100.00;99096.72;15366245;19;20014;-77
2022/09/20 20:09:54;;;;;;;1.77;1.30;;;;;;;8.41;100.00;99101.00;15293147;19;20041;-77
2022/09/20 20:15:27;;;;;;;2.57;1.17;;;;;;;8.30;100.00;99104.59;15294918;19;20018;-78
2022/09/20 20:20:57;;;;;;;1.65;1.42;;;;;;;8.24;100.00;99114.97;15287254;19;20018;-78
2022/09/20 20:26:23;;;;;;;2.17;1.10;;;;;;;8.18;100.00;99113.66;15294232;19;20007;-78
2022/09/20 20:31:47;;;;;;;2.45;1.20;;;;;;;8.11;100.00;99124.09;15284981;19;20014;-77
2022/09/20 20:37:16;;;;;;;1.20;0.98;;;;;;;8.06;100.00;99125.44;15283341;19;20026;-76
2022/09/20 20:42:41;;;;;;;1.52;1.30;;;;;;;7.96;100.00;99134.25;15283985;19;20038;-78
2022/09/20 20:48:06;;;;;;;1.63;1.30;;;;;;;7.86;100.00;99138.69;15292582;19;20022;-77
2022/09/20 20:53:33;;;;;;;2.95;1.20;;;;;;;7.75;100.00;99136.03;15296464;19;20018;-78
2022/09/20 20:59:02;;;;;;;1.45;1.17;;;;;;;7.66;100.00;99159.06;15300363;19;20479;-77
2022/09/20 21:04:27;;;;;;;1.30;1.20;;;;;;;7.60;100.00;99149.69;15288735;19;20011;-77
2022/09/20 21:09:54;;;;;;;1.23;1.13;;;;;;;7.58;100.00;99158.84;15295692;19;20022;-78
2022/09/20 21:15:20;;;;;;;1.67;1.38;;;;;;;7.51;100.00;99158.50;15298723;19;20014;-78
2022/09/20 21:20:44;;;;;;;1.80;1.30;;;;;;;7.46;100.00;99163.38;15288140;19;20038;-77
2022/09/20 21:26:14;;;;;;;4.43;1.80;;;;;;;7.42;100.00;99178.00;15279050;19;20022;-76
2022/09/20 21:31:44;;;;;;;3.10;1.45;;;;;;;7.37;100.00;99178.38;15288705;19;20639;-78
2022/09/20 21:37:09;;;;;;;3.00;1.70;;;;;;;7.31;100.00;99181.53;15286321;19;20396;-78
2022/09/20 21:42:36;;;;;;;2.60;1.30;;;;;;;7.25;100.00;99186.41;15287987;19;20034;-79
2022/09/20 21:48:01;;;;;;;1.30;1.20;;;;;;;7.18;100.00;99197.72;15276337;19;20019;-58
2022/09/20 21:53:32;;;;;;;2.00;1.80;;;;;;;7.10;100.00;99190.28;15266830;19;20015;-58
2022/09/20 21:59:02;;;;;;;2.93;1.77;;;;;;;7.02;100.00;99190.03;15269519;19;20014;-58
2022/09/20 22:04:28;;;;;;;3.75;1.90;;;;;;;6.95;100.00;99197.69;15261620;19;20014;-58
2022/09/20 22:09:53;;;;;;;2.90;1.60;;;;;;;6.89;100.00;99195.47;15263581;19;20035;-58
2022/09/20 22:15:20;;;;;;;1.77;1.60;;;;;;;6.83;100.00;99198.66;15272277;19;20349;-58
2022/09/20 22:20:45;;;;;;;5.47;1.65;;;;;;;6.76;100.00;99199.09;15270150;19;20034;-59
2022/09/20 22:26:12;;;;;;;4.43;1.90;;;;;;;6.72;100.00;99210.16;15262957;19;20311;-58
2022/09/20 22:31:44;;;;;;;2.13;1.83;;;;;;;6.68;100.00;99203.38;15269062;19;20015;-57
2022/09/20 22:37:09;;;;;;;2.72;2.20;;;;;;;6.64;100.00;99221.50;15263923;19;20018;-58
2022/09/20 22:42:34;;;;;;;4.30;2.47;;;;;;;6.62;100.00;99218.91;15268603;19;20339;-58
2022/09/20 22:48:01;;;;;;;3.50;2.35;;;;;;;6.58;100.00;99222.81;15262254;19;20030;-58
2022/09/20 22:53:26;;;;;;;3.00;1.88;;;;;;;6.54;100.00;99217.78;15261404;19;20014;-58
2022/09/20 22:58:52;;;;;;;2.72;2.15;;;;;;;6.50;100.00;99229.72;15273436;19;20046;-58
2022/09/20 23:04:22;;;;;;;4.97;3.15;;;;;;;6.45;100.00;99222.03;15260262;19;20010;-57
2022/09/20 23:09:48;;;;;;;3.00;2.70;;;;;;;6.38;100.00;99218.94;15265947;19;20007;-57
2022/09/20 23:15:14;;;;;;;2.92;2.50;;;;;;;6.33;100.00;99231.81;15268035;19;20043;-59
2022/09/20 23:20:41;;;;;;;2.97;2.40;;;;;;;6.28;100.00;99234.00;15284453;19;20374;-58
2022/09/20 23:26:08;;;;;;;2.42;2.17;;;;;;;6.22;100.00;99229.94;15279075;19;20018;-58
2022/09/20 23:31:34;;;;;;;2.58;2.00;;;;;;;6.14;100.00;99235.88;15279082;19;20022;-58
2022/09/20 23:37:01;;;;;;;2.88;1.75;;;;;;;6.08;100.00;99241.66;15271181;19;20469;-58
2022/09/20 23:42:25;;;;;;;2.67;1.90;;;;;;;6.00;100.00;99231.50;15282327;19;20006;-58
2022/09/20 23:47:50;;;;;;;3.28;2.38;;;;;;;5.96;100.00;99237.16;15276921;19;20018;-58
2022/09/20 23:53:17;;;;;;;2.67;1.70;;;;;;;5.90;100.00;99233.13;15274322;19;20018;-58
2022/09/20 23:58:43;;;;;;;1.80;1.65;;;;;;;5.85;100.00;99230.78;15278845;19;20011;-58
